Terminal Aerodrome Forecast
Issued by NWS Glasgow, MT

Home | Current Version | Previous Version | Text Only | Print | Product List | Glossary On
Versions: 1 2 3 4 5 6 7 8 9 10 11 12 13 14 15 16
321
FTUS45 KGGW 251720
TAFGGW
TAF
KGGW 251720Z 2518/2618 24008KT P6SM VCSH BKN010 OVC020
      TEMPO 2518/2522 5SM -SN
     FM252200 29012KT P6SM BKN015
     FM260600 13006KT P6SM BKN020=

USA.gov is the U.S. government's official web portal to all federal, state and local government web resources and services.